Pagrindinis puslapis
METAR-TAF:

METAR-TAF

Oro uostai :

Kangiqsualujjuaq, Kvebekas, Kanada

platuma: 58-43N, ilguma: 065-59W, Aukštis: 60 m

Dabartinis oras

Ataskaita buvo paskelbta 51 minutes, ne 20:00 UTC
Vėjas 14 kt iš Pietų/Pietryčių su gūsio iki 19 kt
Temperatūra -18°C
Drėgmė 71%
Slėgis 1001 hPa
Matomumas: 8.0 km
Su prošvaistėmis ne aukštis 2200 ft
Apsiniaukę ne aukštis 2900 ft
sniegas, Sniego pustymas pažeme

METAR: CYLU 202000Z 15014G19KT 5SM -SN DRSN BKN022 OVC029 M18/M22 A2955 RMK SC5SC3 SLP016

Laikas: 15:51 (20:51 UTC)


TAF: trūkstamas

Orai ataskaitas ir orų prognozės (METAR, TAF).

turimą stotys yra geltonos ir raudonos taškus žemėlapyje.

Perkelti pele per norėdami pamatyti stoties vardą.

Tada spustelėkite, norėdami matyti oro stebėjimo ir prognozės.

Norėdami pakeisti žemėlapį: spustelėkite ant žalios mygtukų su juodo kryžiaus žemyn,; žalią mygtuką su brūkšneliu, jei norite nutolinti; arba žalių rodyklių gretimoms žemėlapius.


METAR-TAF: